Sherwood Valley Rancheria, California
Current Conditions -  °F | °C
As of 2:56 PM on Friday 31 Oct 2014 (Local Time) from KUKI Reporting Station
Clear Clear  
Wind Chill: 64°   Ceiling: Unl
Heat Index: 64°   Visibility: 10mi
Dew Point: 45°   Wind: 6mph
Humidity: 50%   Direction: 310°NW
Pressure: 29.78"   Gusts: NA
Location:  39.4588°N, 123.715°W
Report Text: KUKI 312156Z AUTO 31005KT 10SM CLR 18/07 A2978 RMK AO2 SLP079 T01780072
Loading
Personal Weather Stations






























Interactive Weather Map
Tropical Storm Tracking
New forecast layout! Learn more

10-Day Weather Forecast

Advertisements
Track Severe Weather on mobile